createdAt,value
2017-11-10T00:01:30.288Z,101016
2017-11-10T00:03:58.894Z,101002
2017-11-10T00:06:27.510Z,100998
2017-11-10T00:08:56.913Z,101000
2017-11-10T00:11:27.696Z,101009
2017-11-10T00:13:56.600Z,101005
2017-11-10T00:16:29.803Z,101008
2017-11-10T00:19:00.209Z,101015
2017-11-10T00:21:30.485Z,101027
2017-11-10T00:23:59.400Z,101023
2017-11-10T00:26:28.420Z,101016
2017-11-10T00:28:57.858Z,101025
2017-11-10T00:31:27.410Z,101027
2017-11-10T00:33:58.729Z,101019
2017-11-10T00:36:28.176Z,101027
2017-11-10T00:38:58.849Z,101026
2017-11-10T00:41:28.666Z,101014
2017-11-10T00:43:58.136Z,101015
2017-11-10T00:46:27.469Z,101022
2017-11-10T00:48:56.094Z,101020
2017-11-10T00:51:25.219Z,101031
2017-11-10T00:53:54.187Z,101023
2017-11-10T00:56:25.149Z,101022
2017-11-10T00:58:53.717Z,101022
2017-11-10T01:01:26.617Z,101008
2017-11-10T01:03:55.916Z,101013
2017-11-10T01:06:25.259Z,101013
2017-11-10T01:08:53.552Z,100997
2017-11-10T01:11:24.980Z,101004
2017-11-10T01:13:57.343Z,101008
2017-11-10T01:16:26.899Z,100990
2017-11-10T01:18:59.276Z,100981
2017-11-10T01:21:28.789Z,100990
2017-11-10T01:23:59.358Z,100972
2017-11-10T01:26:28.993Z,100979
2017-11-10T01:28:57.585Z,100963
2017-11-10T01:31:27.179Z,100962
2017-11-10T01:33:57.975Z,100944
2017-11-10T01:36:27.117Z,100942
2017-11-10T01:39:00.546Z,100945
2017-11-10T01:41:30.574Z,100934
2017-11-10T01:43:59.250Z,100930
2017-11-10T01:46:28.339Z,100933
2017-11-10T01:49:00.557Z,100936
2017-11-10T01:51:30.427Z,100934
2017-11-10T01:53:58.804Z,100932
2017-11-10T01:56:29.534Z,100929
2017-11-10T01:59:03.987Z,100930
2017-11-10T02:01:37.333Z,100931
2017-11-10T02:04:06.341Z,100933
2017-11-10T02:06:36.697Z,100932
2017-11-10T02:09:06.370Z,100931
2017-11-10T02:11:35.203Z,100934
2017-11-10T02:14:04.981Z,100915
2017-11-10T02:16:33.900Z,100918
2017-11-10T02:19:03.197Z,100912
2017-11-10T02:21:32.224Z,100912
2017-11-10T02:24:01.257Z,100915
2017-11-10T02:26:29.709Z,100911
2017-11-10T02:29:00.031Z,100889
2017-11-10T02:31:30.251Z,100913
2017-11-10T02:33:59.826Z,100904
2017-11-10T02:36:29.324Z,100911
2017-11-10T02:38:58.897Z,100890
2017-11-10T02:41:29.649Z,100890
2017-11-10T02:43:58.944Z,100880
2017-11-10T02:46:30.628Z,100895
2017-11-10T02:49:01.073Z,100888
2017-11-10T02:51:30.065Z,100885
2017-11-10T02:53:58.589Z,100882
2017-11-10T02:56:29.533Z,100884
2017-11-10T02:59:00.108Z,100879
2017-11-10T03:01:29.491Z,100874
2017-11-10T03:03:59.096Z,100869
2017-11-10T03:06:27.744Z,100857
2017-11-10T03:09:03.737Z,100863
2017-11-10T03:11:32.856Z,100865
2017-11-10T03:14:05.662Z,100859
2017-11-10T03:16:34.013Z,100859
2017-11-10T03:19:03.402Z,100868
2017-11-10T03:21:35.154Z,100868
2017-11-10T03:24:06.029Z,100871
2017-11-10T03:26:34.729Z,100863
2017-11-10T03:29:03.489Z,100853
2017-11-10T03:31:32.117Z,100857
2017-11-10T03:34:03.132Z,100850
2017-11-10T03:36:32.133Z,100856
2017-11-10T03:39:04.285Z,100850
2017-11-10T03:41:32.644Z,100853
2017-11-10T03:44:04.053Z,100844
2017-11-10T03:46:33.088Z,100844
2017-11-10T03:49:01.856Z,100827
2017-11-10T03:51:31.541Z,100831
2017-11-10T03:54:00.500Z,100820
2017-11-10T03:56:29.337Z,100817
2017-11-10T03:58:58.879Z,100808
2017-11-10T04:01:28.448Z,100801
2017-11-10T04:03:58.324Z,100803
2017-11-10T04:06:27.349Z,100807
2017-11-10T04:08:55.970Z,100798
2017-11-10T04:14:09.897Z,100772
2017-11-10T04:16:39.451Z,100781
2017-11-10T04:19:09.564Z,100777
2017-11-10T04:21:41.336Z,100779
2017-11-10T04:24:10.065Z,100779
2017-11-10T04:26:41.358Z,100773
2017-11-10T04:29:10.064Z,100770
2017-11-10T04:31:40.064Z,100761
2017-11-10T04:34:10.149Z,100764
2017-11-10T04:36:39.833Z,100763
2017-11-10T04:39:09.708Z,100774
2017-11-10T04:41:40.749Z,100747
2017-11-10T04:44:10.340Z,100753
2017-11-10T04:46:39.222Z,100749
2017-11-10T04:49:08.136Z,100749
2017-11-10T04:51:36.798Z,100755
2017-11-10T04:54:05.652Z,100740
2017-11-10T04:56:33.961Z,100748
2017-11-10T04:59:07.245Z,100746
2017-11-10T05:01:37.234Z,100738
2017-11-10T05:04:07.000Z,100723
2017-11-10T05:06:35.982Z,100725
2017-11-10T05:09:05.880Z,100718
2017-11-10T05:11:38.684Z,100718
2017-11-10T05:14:09.318Z,100710
2017-11-10T05:16:37.945Z,100702
2017-11-10T05:19:07.381Z,100696
2017-11-10T05:21:38.290Z,100703
2017-11-10T05:24:07.765Z,100691
2017-11-10T05:26:37.281Z,100698
2017-11-10T05:29:06.136Z,100696
2017-11-10T05:31:35.597Z,100694
2017-11-10T05:34:04.532Z,100684
2017-11-10T05:36:34.620Z,100683
2017-11-10T05:39:03.545Z,100670
2017-11-10T05:41:32.285Z,100664
2017-11-10T05:44:00.741Z,100651
2017-11-10T05:46:29.333Z,100650
2017-11-10T05:48:59.941Z,100651
2017-11-10T05:51:30.403Z,100642
2017-11-10T05:54:00.025Z,100634
2017-11-10T05:56:28.850Z,100643
2017-11-10T05:58:57.604Z,100643
2017-11-10T06:07:26.847Z,100629
2017-11-10T06:09:54.937Z,100625
2017-11-10T06:12:22.989Z,100628
2017-11-10T06:14:51.074Z,100624
2017-11-10T06:17:21.479Z,100627
2017-11-10T06:19:49.558Z,100626
2017-11-10T06:22:17.650Z,100606
2017-11-10T06:24:45.896Z,100608
2017-11-10T06:27:14.400Z,100606
2017-11-10T06:29:43.801Z,100599
2017-11-10T06:32:11.859Z,100592
2017-11-10T06:34:39.947Z,100594
2017-11-10T06:37:08.014Z,100590
2017-11-10T06:39:36.059Z,100593
2017-11-10T06:42:04.186Z,100595
2017-11-10T06:44:32.231Z,100593
2017-11-10T06:47:00.325Z,100575
2017-11-10T06:49:28.414Z,100577
2017-11-10T06:51:56.490Z,100572
2017-11-10T06:54:25.623Z,100566
2017-11-10T06:56:53.634Z,100567
2017-11-10T06:59:21.698Z,100547
2017-11-10T07:01:49.790Z,100548
2017-11-10T07:04:17.855Z,100541
2017-11-10T07:06:45.866Z,100537
2017-11-10T07:09:14.610Z,100539
2017-11-10T07:11:42.665Z,100535
2017-11-10T07:14:10.737Z,100533
2017-11-10T07:16:38.763Z,100529
2017-11-10T07:19:07.570Z,100521
2017-11-10T07:21:35.601Z,100522
2017-11-10T07:24:03.664Z,100523
2017-11-10T07:26:31.687Z,100527
2017-11-10T07:29:00.015Z,100518
2017-11-10T07:31:28.161Z,100529
2017-11-10T07:33:56.239Z,100516
2017-11-10T07:36:24.300Z,100517
2017-11-10T07:38:52.350Z,100515
2017-11-10T07:41:20.810Z,100499
2017-11-10T07:43:48.830Z,100497
2017-11-10T07:46:16.862Z,100502
2017-11-10T07:48:45.605Z,100497
2017-11-10T07:51:13.628Z,100500
2017-11-10T07:53:41.663Z,100490
2017-11-10T07:56:10.434Z,100493
2017-11-10T07:58:38.462Z,100488
2017-11-10T08:01:06.498Z,100479
2017-11-10T08:03:34.933Z,100471
2017-11-10T08:06:03.143Z,100458
2017-11-10T08:08:31.189Z,100459
2017-11-10T08:10:59.210Z,100443
2017-11-10T08:13:28.029Z,100447
2017-11-10T08:15:56.111Z,100446
2017-11-10T08:18:24.138Z,100444
2017-11-10T08:20:52.162Z,100444
2017-11-10T08:23:20.218Z,100446
2017-11-10T08:25:48.558Z,100436
2017-11-10T08:28:16.599Z,100444
2017-11-10T08:30:44.726Z,100426
2017-11-10T08:39:13.892Z,100428
2017-11-10T08:41:44.023Z,100423
2017-11-10T08:44:13.562Z,100417
2017-11-10T08:46:41.590Z,100415
2017-11-10T08:49:10.581Z,100407
2017-11-10T08:51:38.915Z,100406
2017-11-10T08:54:07.801Z,100395
2017-11-10T08:56:37.298Z,100385
2017-11-10T08:59:06.085Z,100376
2017-11-10T09:01:35.389Z,100378
2017-11-10T09:04:04.209Z,100364
2017-11-10T09:06:32.226Z,100368
2017-11-10T09:09:05.217Z,100368
2017-11-10T09:11:38.270Z,100368
2017-11-10T09:14:07.066Z,100357
2017-11-10T09:16:35.480Z,100356
2017-11-10T09:19:04.329Z,100369
2017-11-10T09:21:34.644Z,100338
2017-11-10T09:24:03.754Z,100335
2017-11-10T09:26:32.156Z,100331
2017-11-10T09:29:01.532Z,100299
2017-11-10T09:31:32.159Z,100311
2017-11-10T09:34:01.681Z,100305
2017-11-10T09:36:30.158Z,100299
2017-11-10T09:39:02.739Z,100303
2017-11-10T09:41:32.086Z,100297
2017-11-10T09:44:01.282Z,100287
2017-11-10T09:52:30.410Z,100277
2017-11-10T09:54:58.628Z,100258
2017-11-10T09:57:26.793Z,100264
2017-11-10T09:59:54.953Z,100249
2017-11-10T10:02:23.561Z,100262
2017-11-10T10:04:51.701Z,100244
2017-11-10T10:07:20.862Z,100240
2017-11-10T10:09:49.089Z,100236
2017-11-10T10:12:17.211Z,100217
2017-11-10T10:14:45.298Z,100214
2017-11-10T10:17:13.394Z,100207
2017-11-10T10:19:41.452Z,100198
2017-11-10T10:22:09.569Z,100195
2017-11-10T10:24:37.645Z,100179
2017-11-10T10:27:05.680Z,100183
2017-11-10T10:29:34.448Z,100167
2017-11-10T10:32:03.115Z,100169
2017-11-10T10:34:31.284Z,100160
2017-11-10T10:36:59.325Z,100154
2017-11-10T10:39:27.386Z,100148
2017-11-10T10:41:55.398Z,100136
2017-11-10T10:44:23.456Z,100139
2017-11-10T10:46:51.517Z,100145
2017-11-10T10:49:19.540Z,100131
2017-11-10T10:51:47.917Z,100125
2017-11-10T10:54:15.929Z,100123
2017-11-10T10:56:43.950Z,100121
2017-11-10T10:59:11.969Z,100112
2017-11-10T11:01:40.007Z,100099
2017-11-10T11:04:07.986Z,100103
2017-11-10T11:06:35.993Z,100105
2017-11-10T11:09:04.522Z,100096
2017-11-10T11:11:32.954Z,100093
2017-11-10T11:14:00.985Z,100084
2017-11-10T11:16:29.009Z,100077
2017-11-10T11:18:56.990Z,100076
2017-11-10T11:21:25.064Z,100074
2017-11-10T11:23:53.857Z,100055
2017-11-10T11:26:22.026Z,100059
2017-11-10T11:28:50.437Z,100047
2017-11-10T11:31:18.442Z,100044
2017-11-10T11:33:46.675Z,100027
2017-11-10T11:36:14.680Z,100038
2017-11-10T11:38:42.669Z,100019
2017-11-10T11:41:10.961Z,100011
2017-11-10T11:43:38.977Z,100013
2017-11-10T11:46:06.971Z,100002
2017-11-10T11:48:35.082Z,100004
2017-11-10T11:57:20.514Z,99977
2017-11-10T11:59:48.571Z,99976
2017-11-10T12:02:16.646Z,99971
2017-11-10T12:04:44.700Z,99967
2017-11-10T12:07:12.774Z,99970
2017-11-10T12:12:41.087Z,99952
2017-11-10T12:15:09.162Z,99952
2017-11-10T12:17:37.552Z,99937
2017-11-10T12:20:05.650Z,99946
2017-11-10T12:22:34.126Z,99915
2017-11-10T12:25:03.056Z,99925
2017-11-10T12:27:31.136Z,99926
2017-11-10T12:29:59.218Z,99916
2017-11-10T12:32:27.341Z,99910
2017-11-10T12:34:55.534Z,99914
2017-11-10T12:37:24.349Z,99888
2017-11-10T12:39:52.445Z,99895
2017-11-10T12:42:20.539Z,99878
2017-11-10T12:44:48.598Z,99877
2017-11-10T12:47:17.038Z,99883
2017-11-10T12:49:45.118Z,99869
2017-11-10T12:52:13.226Z,99871
2017-11-10T12:54:41.771Z,99881
2017-11-10T12:57:10.909Z,99873
2017-11-10T12:59:39.254Z,99880
2017-11-10T13:02:07.387Z,99906
2017-11-10T13:04:36.230Z,99928
2017-11-10T13:07:04.327Z,99931
2017-11-10T13:09:32.410Z,99943
2017-11-10T13:12:00.519Z,99936
2017-11-10T13:14:28.574Z,99941
2017-11-10T13:16:57.399Z,99928
2017-11-10T13:19:25.523Z,99932
2017-11-10T13:21:53.570Z,99936
2017-11-10T13:24:21.654Z,99931
2017-11-10T13:26:49.710Z,99947
2017-11-10T13:29:17.742Z,99939
2017-11-10T13:31:45.784Z,99931
2017-11-10T13:34:13.807Z,99909
2017-11-10T13:39:44.188Z,99911
2017-11-10T13:42:14.016Z,99912
2017-11-10T13:44:43.344Z,99891
2017-11-10T13:47:12.941Z,99887
2017-11-10T13:49:41.820Z,99890
2017-11-10T13:52:10.503Z,99894
2017-11-10T13:54:38.956Z,99891
2017-11-10T13:57:07.751Z,99863
2017-11-10T13:59:37.327Z,99892
2017-11-10T14:02:05.887Z,99885
2017-11-10T14:04:34.151Z,99901
2017-11-10T14:07:04.629Z,99900
2017-11-10T14:09:33.487Z,99895
2017-11-10T14:12:02.765Z,99886
2017-11-10T14:14:31.983Z,99890
2017-11-10T14:17:00.892Z,99883
2017-11-10T14:19:32.787Z,99881
2017-11-10T14:25:02.344Z,99881
2017-11-10T14:27:31.040Z,99870
2017-11-10T14:29:59.276Z,99880
2017-11-10T14:32:28.501Z,99879
2017-11-10T14:34:57.461Z,99887
2017-11-10T14:37:26.676Z,99880
2017-11-10T14:39:55.294Z,99873
2017-11-10T14:42:24.244Z,99865
2017-11-10T14:44:53.183Z,99891
2017-11-10T14:47:21.743Z,99878
2017-11-10T14:49:50.302Z,99864
2017-11-10T14:52:18.877Z,99879
2017-11-10T14:54:48.241Z,99868
2017-11-10T14:57:18.158Z,99869
2017-11-10T14:59:47.639Z,99868
2017-11-10T15:02:16.647Z,99868
2017-11-10T15:04:46.792Z,99887
2017-11-10T15:07:15.262Z,99885
2017-11-10T15:09:48.023Z,99900
2017-11-10T15:12:21.775Z,99890
2017-11-10T15:14:50.607Z,99895
2017-11-10T15:20:19.476Z,99920
2017-11-10T15:22:47.486Z,99922
2017-11-10T15:25:15.534Z,99927
2017-11-10T15:27:43.799Z,99923
2017-11-10T15:30:11.881Z,99929
2017-11-10T15:32:41.383Z,99928
2017-11-10T15:35:09.453Z,99916
2017-11-10T15:37:37.511Z,99926
2017-11-10T15:52:19.682Z,99928
2017-11-10T15:54:47.693Z,99927
2017-11-10T15:57:15.737Z,99925
2017-11-10T15:59:43.822Z,99931
2017-11-10T16:02:12.759Z,99938
2017-11-10T16:04:40.785Z,99941
2017-11-10T16:07:08.842Z,99943
2017-11-10T16:09:36.867Z,99951
2017-11-10T16:12:04.926Z,99951
2017-11-10T16:14:33.435Z,99955
2017-11-10T16:23:01.170Z,99986
2017-11-10T16:25:29.226Z,99991
2017-11-10T16:27:57.291Z,99989
2017-11-10T16:30:25.334Z,99997
2017-11-10T16:32:53.373Z,99992
2017-11-10T16:35:21.720Z,99992
2017-11-10T16:37:49.745Z,100000
2017-11-10T16:40:17.773Z,99987
2017-11-10T16:42:45.820Z,99993
2017-11-10T16:45:13.882Z,99997
2017-11-10T16:47:42.663Z,99979
2017-11-10T16:50:11.413Z,99977
2017-11-10T17:01:15.091Z,100005
2017-11-10T17:03:43.169Z,100007
2017-11-10T17:06:12.710Z,100003
2017-11-10T17:08:40.858Z,100009
2017-11-10T17:11:09.690Z,100004
2017-11-10T17:55:38.572Z,100013
2017-11-10T17:58:07.146Z,100002
2017-11-10T18:00:38.163Z,100007
2017-11-10T18:03:06.331Z,100022
2017-11-10T18:05:34.428Z,100026
2017-11-10T18:08:02.584Z,100017
2017-11-10T18:10:31.451Z,100026
2017-11-10T18:12:59.607Z,100029
2017-11-10T18:15:28.407Z,100026
2017-11-10T18:17:56.548Z,100046
2017-11-10T18:20:24.822Z,100057
2017-11-10T18:22:52.964Z,100069
2017-11-10T18:25:21.128Z,100065
2017-11-10T18:27:49.975Z,100079
2017-11-10T18:30:18.188Z,100060
2017-11-10T18:32:46.344Z,100069
2017-11-10T18:35:14.739Z,100083
2017-11-10T18:37:42.902Z,100074
2017-11-10T18:40:11.069Z,100062
2017-11-10T18:42:39.244Z,100059
2017-11-10T18:45:07.382Z,100057
2017-11-10T18:47:35.501Z,100063
2017-11-10T18:50:03.951Z,100057
2017-11-10T18:52:32.105Z,100052
2017-11-10T18:55:03.128Z,100050
2017-11-10T18:57:31.626Z,100053
2017-11-10T18:59:59.996Z,100054
2017-11-10T19:02:28.155Z,100052
2017-11-10T19:07:57.591Z,100045
2017-11-10T19:10:25.977Z,100041
2017-11-10T19:12:54.070Z,100044
2017-11-10T19:15:22.220Z,100042
2017-11-10T19:17:50.320Z,100040
2017-11-10T19:20:18.418Z,100037
2017-11-10T19:22:46.531Z,100043
2017-11-10T19:25:15.376Z,100032
2017-11-10T19:27:43.525Z,100042
2017-11-10T19:30:11.695Z,100043
2017-11-10T19:32:39.817Z,100062
2017-11-10T19:35:08.316Z,100085
2017-11-10T19:37:37.466Z,100087
2017-11-10T19:40:06.611Z,100103
2017-11-10T19:42:35.453Z,100103
2017-11-10T19:45:03.596Z,100122
2017-11-10T19:47:32.416Z,100109
2017-11-10T19:50:00.522Z,100098
2017-11-10T19:52:28.996Z,100107
2017-11-10T19:54:57.119Z,100096
2017-11-10T19:57:25.256Z,100090
2017-11-10T19:59:53.620Z,100085
2017-11-10T20:02:21.811Z,100070
2017-11-10T20:04:49.932Z,100086
2017-11-10T20:07:18.508Z,100085
2017-11-10T20:09:46.599Z,100082
2017-11-10T20:12:17.188Z,100077
2017-11-10T20:14:45.760Z,100090
2017-11-10T20:17:13.867Z,100074
2017-11-10T20:19:42.001Z,100079
2017-11-10T20:22:10.876Z,100075
2017-11-10T20:24:38.980Z,100069
2017-11-10T20:27:07.071Z,100065
2017-11-10T20:29:35.151Z,100073
2017-11-10T20:32:03.361Z,100083
2017-11-10T20:34:31.748Z,100079
2017-11-10T20:36:59.860Z,100075
2017-11-10T20:39:27.965Z,100077
2017-11-10T20:41:56.052Z,100074
2017-11-10T20:44:24.220Z,100067
2017-11-10T20:46:52.741Z,100068
2017-11-10T20:49:20.855Z,100079
2017-11-10T20:51:48.951Z,100083
2017-11-10T20:54:17.066Z,100090
2017-11-10T20:56:45.172Z,100080
2017-11-10T20:59:13.257Z,100089
2017-11-10T21:01:41.766Z,100084
2017-11-10T21:04:09.920Z,100103
2017-11-10T21:06:38.061Z,100091
2017-11-10T21:09:06.168Z,100090
2017-11-10T21:11:34.282Z,100092
2017-11-10T21:14:02.444Z,100085
2017-11-10T21:16:30.588Z,100089
2017-11-10T21:18:58.692Z,100083
2017-11-10T21:21:26.800Z,100086
2017-11-10T21:23:54.880Z,100080
2017-11-10T21:26:22.956Z,100080
2017-11-10T21:28:51.092Z,100081
2017-11-10T21:31:19.923Z,100081
2017-11-10T21:33:48.776Z,100083
2017-11-10T21:36:16.876Z,100088
2017-11-10T21:38:44.990Z,100091
2017-11-10T21:41:13.411Z,100094
2017-11-10T21:43:42.356Z,100088
2017-11-10T21:46:10.751Z,100090
2017-11-10T21:48:38.819Z,100068
2017-11-10T21:51:06.888Z,100076
2017-11-10T21:53:35.060Z,100094
2017-11-10T21:56:03.140Z,100077
2017-11-10T21:58:31.246Z,100083
2017-11-10T22:01:00.082Z,100083
2017-11-10T22:03:28.168Z,100082
2017-11-10T22:05:56.328Z,100076
2017-11-10T22:08:24.677Z,100080
2017-11-10T22:10:52.779Z,100070
2017-11-10T22:13:20.872Z,100079
2017-11-10T22:15:48.960Z,100087
2017-11-10T22:18:17.067Z,100081
2017-11-10T22:20:45.164Z,100077
2017-11-10T22:23:13.524Z,100074
2017-11-10T22:25:41.641Z,100075
2017-11-10T22:28:10.499Z,100084
2017-11-10T22:30:38.584Z,100084
2017-11-10T22:33:06.703Z,100068
2017-11-10T22:35:34.804Z,100069
2017-11-10T22:38:02.928Z,100080
2017-11-10T22:40:31.016Z,100092
2017-11-10T22:42:59.083Z,100097
2017-11-10T22:45:27.547Z,100091
2017-11-10T22:47:55.624Z,100086
2017-11-10T22:50:23.732Z,100077
2017-11-10T22:52:52.563Z,100080
2017-11-10T22:55:20.670Z,100086
2017-11-10T22:57:48.799Z,100084
2017-11-10T23:00:16.940Z,100082
2017-11-10T23:02:45.092Z,100089
2017-11-10T23:05:13.167Z,100093
2017-11-10T23:07:41.617Z,100117
2017-11-10T23:10:09.739Z,100133
2017-11-10T23:12:38.615Z,100145
2017-11-10T23:15:06.784Z,100142
2017-11-10T23:17:34.920Z,100121
2017-11-10T23:20:03.044Z,100132
2017-11-10T23:22:31.909Z,100142
2017-11-10T23:24:59.999Z,100133
2017-11-10T23:27:28.096Z,100151
2017-11-10T23:29:56.536Z,100145
2017-11-10T23:32:24.627Z,100152
2017-11-10T23:34:52.696Z,100107
2017-11-10T23:37:21.419Z,100128
2017-11-10T23:39:49.523Z,100111
2017-11-10T23:42:17.617Z,100120
2017-11-10T23:44:46.787Z,100128
2017-11-10T23:47:22.003Z,100138
2017-11-10T23:49:50.145Z,100125
2017-11-10T23:52:18.963Z,100121
2017-11-10T23:54:47.056Z,100119
2017-11-10T23:57:15.160Z,100125
2017-11-10T23:59:43.244Z,100126
